map of NVI home
NVI - Airport
Location
City:  Navoi, Navoiy, Uzbekistan
Near (Alt.):Navoiy
Name:Navoi International Airport
ICAO:UTSA
IATA:NVI

Details
Type:Airport (Aerodrome, Airfield)
Use:Public/Civil, International (customs port of entry)
Latitude:4007'04"N (40.117778)
Longitude:6510'30"E (65.175000)
Variation:5.42E (WMM2015v2 magnetic declination)
0.06 annual change
Runways:1
Longest:9186 × 98 ft (2800 × 30 m), paved

Time
Time Zone:UTC+5
Local Time:

Weather
METAR:UTSA 041400Z 01014KT 9999 NSC 08/04 Q1019 R07/CLRD70 NOSIG
TAF:UTSA 041101Z 0412/0512 VRB05KT 7000 FEW010 SCT040CB
TEMPO 0412/0417 03016G26KT 3000 -SHRA BR SCT006 OVC025CB
TEMPO 0417/0424 36012G22KT 2500 -SHSNRA BR BKN006 OVC020CB

Related Locations
Nearby:
Farthest:IPC: 11486 mi / 18486 km
Easter Island (Isla de Pascua, Rapa Nui) [Mataveri Intl], VS, CL

Find:

   beyond  
but within

Other Information
Maps:
NOTAMs:
Links:
Sources:

  
  • flag of Uzbekistan
  

Sectional Chart

Flight Planning
at skyvector.com

Satellite Image

Google Maps Satellite view

 

Copyright © 2004-2019 Karl L. Swartz. All rights reserved.
The Great Circle Mapper name and logo are trademarks of the Great Circle Mapper.
All other trademarks mentioned herein belong to their respective owners.
Please see credits for attibutions and further copyright information.

  Follow gcmap on Facebook Follow gcmap on Twitter GCmap on LinkedIn

hCard Microformat

Geo Microformat